Time;durP1;ratioP1;P1;durP2;ratioP2;P2;SDS_P1;SDS_P2;PMS_P1;PMS_P2;Temp;Humidity;BMP_temperature;BMP_pressure;BME280_temperature;BME280_humidity;BME280_pressure;Samples;Min_cycle;Max_cycle;Signal;HPM_P1;HPM_P2
2022/05/03 00:01:43;;;;;;;3.67;2.60;;;;;;;15.31;55.80;94410.84;5053109;28;20210;-85
2022/05/03 00:04:22;;;;;;;2.57;2.37;;;;;;;15.01;55.73;94369.56;5057186;28;20232;-85
2022/05/03 00:06:57;;;;;;;2.50;2.30;;;;;;;15.26;56.03;94411.38;5069851;28;20400;-83
2022/05/03 00:09:33;;;;;;;3.50;2.50;;;;;;;15.18;55.81;94395.97;5070060;28;20194;-85
2022/05/03 00:12:04;;;;;;;4.83;2.47;;;;;;;15.25;55.89;94402.06;5070873;28;20197;-85
2022/05/03 00:14:36;;;;;;;3.93;2.70;;;;;;;14.77;55.89;94329.34;5071634;28;20190;-85
2022/05/03 00:17:05;;;;;;;2.20;2.10;;;;;;;14.85;55.79;94343.91;5070629;28;20197;-84
2022/05/03 00:19:34;;;;;;;4.50;2.50;;;;;;;15.21;55.60;94405.16;5070316;28;20190;-86
2022/05/03 00:22:01;;;;;;;2.60;2.40;;;;;;;15.19;55.85;94399.34;5069534;28;20190;-84
2022/05/03 00:24:28;;;;;;;2.83;2.57;;;;;;;15.18;56.05;94415.78;5070054;28;20201;-85
2022/05/03 00:26:56;;;;;;;3.00;2.40;;;;;;;15.14;55.94;94399.88;5072534;27;20590;-85
2022/05/03 00:29:24;;;;;;;2.27;2.07;;;;;;;15.00;55.79;94383.41;5133196;27;20659;-85
2022/05/03 00:31:51;;;;;;;2.60;2.40;;;;;;;15.13;55.93;94403.44;5133357;27;20188;-83
2022/05/03 00:34:18;;;;;;;3.33;2.53;;;;;;;15.12;55.89;94411.34;5142155;27;20261;-83
2022/05/03 00:36:46;;;;;;;3.00;2.70;;;;;;;14.95;56.03;94384.91;5153775;27;20188;-80
2022/05/03 00:39:13;;;;;;;2.60;2.40;;;;;;;15.06;56.37;94410.25;5150687;27;20336;-85
2022/05/03 00:41:45;;;;;;;2.17;2.07;;;;;;;14.97;56.37;94396.63;5133357;27;20197;-85
2022/05/03 00:47:14;;;;;;;2.40;2.20;;;;;;;15.00;56.38;94401.44;5132809;27;20234;-84
2022/05/03 00:49:53;;;;;;;2.70;2.50;;;;;;;14.99;56.41;94405.00;5133024;27;20196;-85
2022/05/03 00:52:28;;;;;;;2.40;2.20;;;;;;;13.99;56.42;94260.84;5132308;27;20611;-85
2022/05/03 00:55:12;;;;;;;2.80;2.60;;;;;;;14.97;56.42;94403.53;5132617;27;20203;-84
2022/05/03 00:57:46;;;;;;;5.50;2.60;;;;;;;14.96;56.55;94401.94;5133231;27;20195;-86
2022/05/03 01:00:14;;;;;;;2.73;2.53;;;;;;;14.49;56.48;94341.13;5152147;27;20199;-84
2022/05/03 01:02:58;;;;;;;2.40;2.20;;;;;;;14.93;56.53;94402.28;5153063;27;20722;-80
2022/05/03 01:05:28;;;;;;;2.57;2.37;;;;;;;14.15;56.71;94284.84;5152771;27;20186;-82
2022/05/03 01:08:05;;;;;;;2.50;2.30;;;;;;;14.90;56.71;94402.66;5151483;27;20207;-81
2022/05/03 01:10:35;;;;;;;2.30;2.20;;;;;;;14.87;56.98;94400.41;5152488;27;20191;-82
2022/05/03 01:13:04;;;;;;;2.23;2.13;;;;;;;14.71;56.96;94381.50;5152533;27;20230;-85
2022/05/03 01:15:33;;;;;;;2.77;2.10;;;;;;;14.82;57.06;94392.41;5152863;27;20191;-80
2022/05/03 01:18:21;;;;;;;2.60;2.40;;;;;;;14.79;57.14;94396.91;5142498;27;20257;-81
2022/05/03 01:21:03;;;;;;;3.03;2.20;;;;;;;14.12;57.21;94288.59;5131573;27;20227;-82
2022/05/03 01:24:15;;;;;;;2.47;2.33;;;;;;;14.73;57.01;94382.16;5132044;27;20184;-85
2022/05/03 01:27:19;;;;;;;5.67;2.67;;;;;;;14.71;57.18;94388.44;5068257;28;20218;-83
2022/05/03 01:29:50;;;;;;;2.50;2.23;;;;;;;14.68;57.10;94387.00;5068354;28;20196;-83
2022/05/03 01:32:20;;;;;;;2.80;2.40;;;;;;;14.70;56.93;94384.25;5068509;28;20186;-84
2022/05/03 01:34:49;;;;;;;2.80;2.23;;;;;;;14.52;57.06;94353.66;5068120;28;20193;-84
2022/05/03 01:37:38;;;;;;;2.63;2.40;;;;;;;14.67;56.96;94374.28;5069124;28;20187;-81
2022/05/03 01:40:08;;;;;;;2.37;2.17;;;;;;;14.65;56.90;94374.47;5068482;28;20183;-83
2022/05/03 01:42:56;;;;;;;3.67;2.40;;;;;;;14.64;57.01;94361.78;5068638;28;20182;-83
2022/05/03 01:45:30;;;;;;;3.77;2.13;;;;;;;14.65;57.04;94361.59;5066983;28;20200;-83
2022/05/03 01:48:10;;;;;;;2.40;2.30;;;;;;;14.63;57.08;94355.81;5072364;28;20214;-81
2022/05/03 01:50:42;;;;;;;2.93;2.40;;;;;;;14.62;57.11;94369.66;5068794;28;20190;-81
2022/05/03 01:53:17;;;;;;;2.40;2.20;;;;;;;14.63;56.96;94360.16;5067799;28;20197;-82
2022/05/03 01:56:28;;;;;;;2.70;2.50;;;;;;;14.62;57.01;94366.28;5068164;28;20193;-84
2022/05/03 01:59:16;;;;;;;2.40;2.17;;;;;;;14.59;57.14;94364.03;5008533;28;20192;-83
2022/05/03 02:01:54;;;;;;;2.40;2.30;;;;;;;14.44;57.32;94345.94;5046609;28;20219;-80
2022/05/03 02:04:39;;;;;;;2.33;2.23;;;;;;;14.55;56.97;94364.41;5061443;28;20247;-84
2022/05/03 02:07:07;;;;;;;4.93;2.43;;;;;;;14.53;57.23;94363.75;5067858;28;20218;-85
2022/05/03 02:09:53;;;;;;;2.53;2.20;;;;;;;14.39;57.65;94337.94;5068009;28;20232;-82
2022/05/03 02:12:22;;;;;;;2.47;2.23;;;;;;;14.52;57.72;94358.78;5067960;28;20201;-85
2022/05/03 02:14:51;;;;;;;2.77;2.57;;;;;;;14.51;57.68;94367.50;5071051;28;20198;-82
2022/05/03 02:17:50;;;;;;;2.20;2.10;;;;;;;14.51;57.90;94364.91;5070391;28;20186;-83
2022/05/03 02:20:32;;;;;;;3.50;2.90;;;;;;;14.52;58.18;94361.38;5066943;28;20198;-84
2022/05/03 02:23:14;;;;;;;3.10;2.50;;;;;;;14.49;58.22;94362.50;5072682;28;20186;-84
2022/05/03 02:25:47;;;;;;;3.20;2.90;;;;;;;14.32;58.00;94330.88;5072601;28;20186;-84
2022/05/03 02:28:19;;;;;;;2.80;2.70;;;;;;;13.79;58.49;94244.25;5072207;28;20710;-84
2022/05/03 02:30:47;;;;;;;5.70;2.87;;;;;;;13.47;58.23;94204.06;5072518;28;20198;-84
2022/05/03 02:33:23;;;;;;;3.50;3.10;;;;;;;14.44;58.70;94354.47;5072416;28;20293;-82
2022/05/03 02:35:55;;;;;;;2.53;2.33;;;;;;;14.10;58.44;94293.06;5133984;27;20195;-80
2022/05/03 02:38:29;;;;;;;3.30;3.00;;;;;;;14.43;58.64;94354.63;5135092;27;20715;-83
2022/05/03 02:40:59;;;;;;;3.80;2.93;;;;;;;14.40;58.72;94352.41;5135488;27;20196;-81
2022/05/03 02:43:27;;;;;;;4.03;3.03;;;;;;;14.39;58.44;94349.03;5135358;27;20252;-83
2022/05/03 02:46:01;;;;;;;3.13;2.70;;;;;;;14.31;58.54;94341.34;5135444;27;20204;-81
2022/05/03 02:48:39;;;;;;;7.03;3.00;;;;;;;13.99;58.56;94283.97;5135814;27;20274;-79
2022/05/03 02:51:08;;;;;;;3.30;3.00;;;;;;;14.40;58.30;94349.81;5135312;27;20249;-83
2022/05/03 02:53:44;;;;;;;2.73;2.53;;;;;;;14.13;58.49;94299.66;5135285;27;20279;-83
2022/05/03 02:56:21;;;;;;;2.80;2.60;;;;;;;14.40;58.70;94339.53;5135014;27;20184;-83
2022/05/03 02:59:03;;;;;;;3.20;2.83;;;;;;;14.37;58.80;94345.00;5135158;27;20212;-83
2022/05/03 03:01:50;;;;;;;3.23;2.90;;;;;;;14.37;59.13;94342.44;5135602;27;20228;-84
2022/05/03 03:04:27;;;;;;;3.10;2.90;;;;;;;14.35;59.04;94342.63;5160979;27;20195;-81
2022/05/03 03:06:56;;;;;;;3.23;3.00;;;;;;;14.35;59.30;94341.81;5173319;27;20268;-82
2022/05/03 03:09:27;;;;;;;3.23;2.97;;;;;;;14.34;59.13;94342.78;5158818;27;20195;-82
2022/05/03 03:11:59;;;;;;;3.17;2.97;;;;;;;14.37;58.88;94350.16;5150976;27;20198;-81
2022/05/03 03:14:35;;;;;;;3.77;3.47;;;;;;;14.34;59.00;94350.50;5150043;27;20204;-82
2022/05/03 03:17:06;;;;;;;2.90;2.60;;;;;;;14.32;59.28;94345.50;5149567;27;20184;-80
2022/05/03 03:20:06;;;;;;;3.10;2.87;;;;;;;14.31;59.35;94346.50;5150185;27;20180;-81
2022/05/03 03:22:38;;;;;;;2.90;2.70;;;;;;;14.31;59.56;94346.50;5149591;27;20196;-82
2022/05/03 03:25:07;;;;;;;3.27;3.07;;;;;;;14.29;59.48;94341.53;5144965;27;20188;-83
2022/05/03 03:27:35;;;;;;;3.67;3.33;;;;;;;14.15;59.66;94328.56;5157091;27;20214;-81
2022/05/03 03:30:04;;;;;;;5.03;3.13;;;;;;;13.72;59.36;94262.09;5165538;27;20203;-82
2022/05/03 03:32:32;;;;;;;3.07;2.80;;;;;;;14.17;59.46;94329.22;5146671;27;20188;-84
2022/05/03 03:35:00;;;;;;;3.70;3.40;;;;;;;14.28;59.41;94351.97;5136932;27;20195;-83
2022/05/03 03:37:29;;;;;;;3.30;3.00;;;;;;;13.83;59.46;94278.13;5142876;27;20256;-84
2022/05/03 03:39:56;;;;;;;3.40;3.20;;;;;;;14.28;59.59;94352.75;5142712;27;20188;-84
2022/05/03 03:42:23;;;;;;;3.50;3.20;;;;;;;14.28;59.65;94351.97;5144342;27;20188;-83
2022/05/03 03:44:53;;;;;;;3.37;3.13;;;;;;;14.28;59.62;94344.25;5150327;27;20177;-83
2022/05/03 03:47:20;;;;;;;3.53;3.23;;;;;;;14.06;59.65;94320.88;5160424;27;20280;-83
2022/05/03 03:49:47;;;;;;;3.67;2.77;;;;;;;14.26;59.76;94357.28;5165867;27;20591;-84
2022/05/03 03:52:15;;;;;;;3.43;3.13;;;;;;;14.27;59.68;94356.31;5146670;27;20695;-83
2022/05/03 03:54:43;;;;;;;3.80;3.20;;;;;;;14.29;59.67;94359.53;5145566;27;20195;-82
2022/05/03 03:57:12;;;;;;;3.27;2.97;;;;;;;14.17;59.47;94329.22;5147801;27;20323;-83
2022/05/03 03:59:40;;;;;;;3.70;3.40;;;;;;;14.31;59.62;94359.34;5150505;27;20671;-86
2022/05/03 04:02:07;;;;;;;3.03;2.70;;;;;;;14.32;59.57;94356.59;5144340;27;20224;-84
2022/05/03 04:04:37;;;;;;;5.13;3.00;;;;;;;14.32;59.63;94358.38;5134231;27;20199;-84
2022/05/03 04:07:05;;;;;;;3.47;3.17;;;;;;;13.66;59.57;94254.25;5154706;27;20192;-86
2022/05/03 04:09:33;;;;;;;3.13;2.93;;;;;;;14.36;59.62;94364.00;5135179;27;20210;-86
2022/05/03 04:12:01;;;;;;;5.37;3.03;;;;;;;14.19;59.68;94333.19;5134598;27;20578;-84
2022/05/03 04:14:29;;;;;;;3.40;3.13;;;;;;;14.39;59.82;94371.38;5135596;27;20184;-86
2022/05/03 04:16:56;;;;;;;4.37;3.10;;;;;;;14.40;59.56;94358.34;5135586;27;20192;-86
2022/05/03 04:19:23;;;;;;;3.33;3.07;;;;;;;14.45;59.42;94355.25;5138468;27;20188;-84
2022/05/03 04:21:50;;;;;;;2.90;2.70;;;;;;;14.46;59.71;94364.56;5158986;27;20190;-84
2022/05/03 04:24:18;;;;;;;3.47;3.17;;;;;;;14.29;59.64;94330.41;5150550;27;20188;-84
2022/05/03 04:26:46;;;;;;;3.30;3.00;;;;;;;14.48;59.88;94371.19;5136176;27;20196;-86
2022/05/03 04:29:14;;;;;;;3.40;3.10;;;;;;;14.50;59.64;94364.09;5143357;27;20226;-86
2022/05/03 04:31:41;;;;;;;6.40;3.07;;;;;;;14.55;59.64;94377.28;5134903;27;20206;-84
2022/05/03 04:34:08;;;;;;;3.90;3.57;;;;;;;14.41;59.64;94356.56;5134769;27;20628;-83
2022/05/03 04:36:35;;;;;;;3.80;3.50;;;;;;;14.59;59.75;94382.84;5140784;27;20187;-85
2022/05/03 04:39:03;;;;;;;3.70;3.40;;;;;;;14.61;59.68;94382.72;5155059;27;20420;-80
2022/05/03 04:41:30;;;;;;;3.07;2.87;;;;;;;14.00;59.70;94285.56;5151820;27;20195;-80
2022/05/03 04:43:59;;;;;;;4.23;3.13;;;;;;;14.64;59.50;94377.22;5133136;27;20196;-82
2022/05/03 04:46:25;;;;;;;4.20;3.07;;;;;;;14.70;59.47;94381.69;5132804;27;20194;-82
2022/05/03 04:48:52;;;;;;;4.10;3.20;;;;;;;14.06;59.46;94277.19;5133572;27;20224;-83
2022/05/03 04:51:21;;;;;;;2.90;2.70;;;;;;;14.54;59.30;94365.34;5132930;27;20193;-81
2022/05/03 04:53:48;;;;;;;2.90;2.70;;;;;;;14.58;59.23;94355.53;5132879;27;20199;-82
2022/05/03 04:56:19;;;;;;;4.17;3.00;;;;;;;14.09;58.63;94275.25;5137263;27;20195;-81
2022/05/03 04:58:47;;;;;;;3.53;2.87;;;;;;;14.46;58.66;94331.13;5154505;27;20191;-83
2022/05/03 05:01:16;;;;;;;3.03;2.83;;;;;;;14.44;58.47;94323.59;5143839;27;20192;-82
2022/05/03 05:03:43;;;;;;;4.93;2.77;;;;;;;14.90;58.49;94385.41;5132421;27;20196;-83
2022/05/03 05:06:10;;;;;;;4.07;2.87;;;;;;;14.45;58.19;94308.94;5132320;27;20602;-82
2022/05/03 05:08:37;;;;;;;3.00;2.70;;;;;;;15.02;57.91;94380.66;5132237;27;20220;-81
2022/05/03 05:11:05;;;;;;;3.10;2.90;;;;;;;14.84;57.61;94346.69;5143891;27;20180;-82
2022/05/03 05:13:32;;;;;;;3.20;2.73;;;;;;;15.17;57.70;94381.50;5143919;27;20203;-82
2022/05/03 05:15:59;;;;;;;2.93;2.60;;;;;;;14.68;57.37;94303.81;5134049;27;20675;-83
2022/05/03 05:18:28;;;;;;;3.40;3.10;;;;;;;14.78;57.00;94312.94;5133521;27;20176;-83
2022/05/03 05:20:55;;;;;;;3.23;2.97;;;;;;;15.24;56.90;94391.91;5151960;27;20563;-81
2022/05/03 05:23:21;;;;;;;3.67;3.30;;;;;;;15.29;56.47;94387.84;5153083;27;20184;-83
2022/05/03 05:25:49;;;;;;;3.57;3.23;;;;;;;15.35;56.58;94382.97;5153110;27;20186;-83
2022/05/03 05:28:16;;;;;;;3.37;3.03;;;;;;;15.06;56.51;94348.44;5152455;27;20219;-80
2022/05/03 05:30:43;;;;;;;3.93;3.47;;;;;;;15.22;56.32;94362.97;5152456;27;20191;-81
2022/05/03 05:33:11;;;;;;;3.90;3.03;;;;;;;15.41;56.44;94392.56;5152479;27;20620;-80
2022/05/03 05:35:39;;;;;;;5.23;3.67;;;;;;;15.36;56.14;94369.13;5152399;27;20191;-83
2022/05/03 05:38:07;;;;;;;3.40;3.10;;;;;;;15.60;55.91;94391.28;5152539;27;20191;-82
2022/05/03 05:40:33;;;;;;;5.00;3.00;;;;;;;15.70;55.53;94377.19;5152782;27;20184;-83
2022/05/03 05:43:01;;;;;;;3.90;2.97;;;;;;;16.01;55.50;94402.00;5152223;27;20199;-82
2022/05/03 05:45:28;;;;;;;4.37;2.73;;;;;;;15.71;54.76;94308.38;5151883;27;20214;-83
2022/05/03 05:47:56;;;;;;;2.80;2.60;;;;;;;16.43;54.50;94392.81;5152213;27;20248;-81
2022/05/03 05:50:23;;;;;;;3.10;2.87;;;;;;;16.64;54.30;94397.22;5152569;27;20195;-84
2022/05/03 05:55:36;;;;;;;2.60;2.27;;;;;;;16.97;52.31;94385.50;5152620;27;20191;-85
2022/05/03 05:58:03;;;;;;;5.47;2.47;;;;;;;17.26;51.55;94409.59;5152337;27;20199;-83
2022/05/03 06:00:30;;;;;;;3.83;2.30;;;;;;;17.41;50.83;94406.94;5153225;27;20202;-80
2022/05/03 06:02:58;;;;;;;2.50;2.20;;;;;;;16.45;50.70;94236.81;5154238;27;20240;-81
2022/05/03 06:05:27;;;;;;;2.83;2.23;;;;;;;17.75;50.27;94416.59;5154219;27;20768;-85
2022/05/03 06:07:55;;;;;;;2.57;2.37;;;;;;;17.26;50.02;94311.38;5155570;27;20227;-85
2022/05/03 06:10:23;;;;;;;2.60;2.40;;;;;;;18.09;49.36;94426.16;5154760;27;20200;-87
2022/05/03 06:12:50;;;;;;;2.60;2.40;;;;;;;18.09;49.21;94397.69;5154560;27;20274;-86
2022/05/03 06:15:19;;;;;;;2.97;2.30;;;;;;;18.35;48.91;94424.69;5153236;27;20272;-85
2022/05/03 06:17:46;;;;;;;2.77;2.40;;;;;;;18.22;48.47;94384.81;5154401;27;20184;-87
2022/05/03 06:20:13;;;;;;;3.00;2.70;;;;;;;18.49;48.49;94419.38;5154366;27;20199;-84
2022/05/03 06:22:40;;;;;;;5.43;2.77;;;;;;;18.04;48.25;94356.84;5167756;27;20187;-85
2022/05/03 06:25:10;;;;;;;2.60;2.40;;;;;;;18.54;47.89;94429.16;5167046;27;20624;-85
2022/05/03 06:27:38;;;;;;;2.93;2.43;;;;;;;18.24;47.97;94388.00;5162233;27;20187;-87
2022/05/03 06:30:06;;;;;;;2.43;2.13;;;;;;;18.58;47.81;94429.59;5168987;27;20183;-82
2022/05/03 06:32:33;;;;;;;2.27;2.17;;;;;;;18.33;47.63;94391.22;5168929;27;20211;-83
2022/05/03 06:35:00;;;;;;;2.20;2.10;;;;;;;18.71;47.77;94440.81;5165777;27;20229;-83
2022/05/03 06:37:27;;;;;;;4.43;2.13;;;;;;;18.61;47.51;94404.09;5152348;27;20198;-81
2022/05/03 06:39:54;;;;;;;2.00;1.90;;;;;;;18.96;47.74;94440.31;5152704;27;20195;-81
2022/05/03 06:42:22;;;;;;;3.60;2.47;;;;;;;19.11;47.58;94446.09;5152424;27;20196;-81
2022/05/03 06:44:49;;;;;;;2.57;2.37;;;;;;;19.28;47.18;94451.72;5151924;27;20640;-80
2022/05/03 06:47:16;;;;;;;2.63;2.00;;;;;;;19.46;46.98;94451.94;5151980;27;20624;-83
2022/05/03 06:49:44;;;;;;;2.20;2.00;;;;;;;19.66;46.70;94456.41;5151973;27;20211;-82
2022/05/03 06:52:10;;;;;;;2.17;2.00;;;;;;;19.65;46.29;94427.06;5153180;27;20188;-83
2022/05/03 06:54:37;;;;;;;3.80;2.00;;;;;;;19.98;45.93;94458.16;5160579;27;20288;-81
2022/05/03 06:57:05;;;;;;;2.13;1.93;;;;;;;20.04;45.74;94470.34;5152215;27;20556;-82
2022/05/03 06:59:33;;;;;;;3.07;1.87;;;;;;;20.10;45.10;94467.94;5152282;27;20191;-81
2022/05/03 07:02:00;;;;;;;3.33;2.00;;;;;;;20.17;45.05;94466.16;5152225;27;20228;-83
2022/05/03 07:04:27;;;;;;;3.43;2.00;;;;;;;20.36;45.05;94480.09;5149989;27;20182;-82
2022/05/03 07:06:53;;;;;;;2.47;2.20;;;;;;;20.15;44.77;94403.22;5147141;27;20219;-87
2022/05/03 07:09:20;;;;;;;2.63;2.40;;;;;;;20.70;44.27;94469.44;5157586;27;20218;-84
2022/05/03 07:11:47;;;;;;;4.50;2.10;;;;;;;20.83;43.89;94473.78;5153837;27;20196;-85
2022/05/03 07:14:15;;;;;;;2.07;1.87;;;;;;;20.95;43.79;94466.13;5135872;27;20184;-81
2022/05/03 07:16:43;;;;;;;2.30;2.10;;;;;;;20.94;43.36;94467.94;5136782;27;20231;-85
2022/05/03 07:24:40;;;;;;;2.73;2.43;;;;;;;20.91;42.97;94444.16;5138855;27;20195;-89
2022/05/03 07:27:07;;;;;;;2.10;1.90;;;;;;;20.91;43.33;94446.75;5121014;27;20193;-86
2022/05/03 07:29:35;;;;;;;2.37;2.17;;;;;;;20.99;43.46;94462.91;5138399;27;20601;-87
2022/05/03 07:32:03;;;;;;;3.53;2.50;;;;;;;20.93;43.26;94470.72;5155771;27;20195;-88
2022/05/03 07:34:36;;;;;;;2.50;2.30;;;;;;;20.67;43.37;94437.84;5156428;27;20187;-83
2022/05/03 07:37:06;;;;;;;3.83;2.47;;;;;;;20.70;43.37;94459.03;5156112;27;20694;-87
2022/05/03 07:39:33;;;;;;;2.43;2.23;;;;;;;20.72;43.51;94466.63;5137293;27;20240;-87
2022/05/03 07:42:00;;;;;;;3.07;2.57;;;;;;;20.63;43.42;94473.84;5156054;27;20203;-84
2022/05/03 07:44:32;;;;;;;2.77;2.30;;;;;;;20.35;43.65;94445.53;5155698;27;20226;-84
2022/05/03 07:46:59;;;;;;;4.60;2.70;;;;;;;20.30;43.66;94456.53;5155684;27;20227;-83
2022/05/03 07:49:28;;;;;;;2.93;2.73;;;;;;;20.24;43.74;94472.91;5155690;27;20230;-82
2022/05/03 07:52:00;;;;;;;3.47;3.17;;;;;;;19.83;43.46;94417.88;5156236;27;20268;-84
2022/05/03 07:54:48;;;;;;;2.90;2.70;;;;;;;19.85;43.83;94454.78;5161004;27;20203;-82
2022/05/03 07:57:15;;;;;;;3.50;2.53;;;;;;;19.74;43.64;94457.00;5172794;27;20186;-86
2022/05/03 07:59:42;;;;;;;3.03;2.67;;;;;;;18.20;43.93;94248.81;5175864;27;20195;-87
2022/05/03 08:02:09;;;;;;;3.87;2.20;;;;;;;19.24;43.75;94427.97;5161572;27;20230;-89
2022/05/03 08:04:40;;;;;;;2.70;2.50;;;;;;;19.47;43.71;94489.88;5152658;27;20278;-90
2022/05/03 08:07:07;;;;;;;2.73;2.33;;;;;;;19.31;43.74;94487.66;5155483;27;20191;-87
2022/05/03 08:09:36;;;;;;;3.20;2.87;;;;;;;18.88;44.13;94449.06;5158726;27;20591;-89
2022/05/03 08:12:03;;;;;;;2.80;2.60;;;;;;;18.50;44.24;94408.03;5154493;27;20671;-89
2022/05/03 08:14:31;;;;;;;4.07;2.33;;;;;;;18.99;44.63;94499.50;5155152;27;20673;-88
2022/05/03 08:16:58;;;;;;;4.53;2.60;;;;;;;18.87;45.05;94491.50;5152682;27;20207;-89
2022/05/03 08:19:52;;;;;;;3.53;2.80;;;;;;;18.77;45.33;94497.03;5153857;27;20202;-90
2022/05/03 08:22:38;;;;;;;2.73;2.53;;;;;;;18.71;45.87;94499.59;5153950;27;20195;-87
2022/05/03 08:25:15;;;;;;;6.43;2.80;;;;;;;18.58;45.97;94484.75;5139004;27;20206;-90
2022/05/03 08:27:45;;;;;;;4.27;2.57;;;;;;;18.74;46.06;94509.59;5154974;27;20202;-88
2022/05/03 08:30:17;;;;;;;3.53;2.77;;;;;;;18.62;46.24;94480.00;5155105;27;20243;-87
2022/05/03 08:32:49;;;;;;;6.37;2.83;;;;;;;18.67;46.43;94499.16;5133468;27;20228;-89
2022/05/03 08:35:27;;;;;;;2.77;2.47;;;;;;;18.59;46.56;94495.91;5154301;27;20218;-87
2022/05/03 08:43:58;;;;;;;2.37;2.23;;;;;;;18.72;47.01;94521.91;5092773;28;20494;-90
2022/05/03 08:46:26;;;;;;;2.37;2.20;;;;;;;18.78;47.13;94518.53;5087288;28;20304;-85
2022/05/03 08:48:57;;;;;;;2.50;2.30;;;;;;;18.65;47.08;94493.38;5063905;28;20806;-85
2022/05/03 08:51:24;;;;;;;4.20;2.50;;;;;;;18.88;47.04;94534.56;5074485;28;20241;-86
2022/05/03 08:53:52;;;;;;;2.47;2.20;;;;;;;18.92;47.00;94525.41;5079447;28;20259;-89
2022/05/03 08:56:21;;;;;;;2.57;2.07;;;;;;;18.75;46.96;94499.03;5083955;28;20646;-88
2022/05/03 08:58:48;;;;;;;2.40;2.20;;;;;;;18.28;46.79;94424.66;5083505;28;20202;-88
2022/05/03 09:01:16;;;;;;;4.57;2.13;;;;;;;18.85;46.80;94508.22;5072300;28;20198;-79
2022/05/03 09:03:42;;;;;;;2.47;2.20;;;;;;;18.98;46.76;94516.06;5077443;28;20210;-80
2022/05/03 09:06:09;;;;;;;2.23;2.03;;;;;;;18.91;46.79;94499.66;5069589;28;20194;-83
2022/05/03 09:08:39;;;;;;;2.57;2.07;;;;;;;19.05;46.82;94522.06;5075473;28;20198;-80
2022/05/03 09:11:17;;;;;;;4.13;2.10;;;;;;;19.15;46.62;94524.28;5072699;28;20315;-85
2022/05/03 09:13:45;;;;;;;1.90;1.77;;;;;;;18.96;46.59;94479.97;5082408;28;20205;-83
2022/05/03 09:16:14;;;;;;;2.00;1.90;;;;;;;19.30;46.45;94522.34;5081666;28;20968;-84
2022/05/03 09:18:41;;;;;;;2.80;1.80;;;;;;;19.40;46.47;94529.75;5074902;27;20194;-82
2022/05/03 09:24:07;;;;;;;2.20;2.00;;;;;;;19.60;46.27;94524.59;5154006;27;20225;-80
2022/05/03 09:26:37;;;;;;;1.93;1.83;;;;;;;19.38;46.28;94474.69;5151738;27;20180;-79
2022/05/03 09:29:07;;;;;;;2.17;1.97;;;;;;;19.55;46.16;94484.47;5157063;27;20586;-78
2022/05/03 09:31:37;;;;;;;2.23;2.00;;;;;;;19.84;46.02;94512.88;5149156;27;20619;-90
2022/05/03 09:34:06;;;;;;;3.93;2.17;;;;;;;18.71;45.55;94313.88;5159494;27;20293;-91
2022/05/03 09:36:43;;;;;;;3.40;1.90;;;;;;;18.96;45.38;94331.47;5154182;27;20187;-91
2022/05/03 09:39:21;;;;;;;2.77;1.87;;;;;;;19.94;45.11;94469.16;5170834;27;20251;-89
2022/05/03 09:42:10;;;;;;;1.80;1.70;;;;;;;20.39;44.73;94513.47;5152517;27;20202;-83
2022/05/03 09:44:40;;;;;;;1.80;1.70;;;;;;;20.47;44.56;94514.03;5146569;27;20194;-81
2022/05/03 09:47:09;;;;;;;3.67;2.10;;;;;;;20.53;44.47;94518.44;5145074;27;20191;-80
2022/05/03 09:49:38;;;;;;;2.60;2.03;;;;;;;20.55;44.39;94515.63;5147386;27;20215;-83
2022/05/03 09:52:06;;;;;;;2.07;1.97;;;;;;;20.29;44.34;94467.94;5152335;27;20188;-84
2022/05/03 09:54:47;;;;;;;2.60;1.90;;;;;;;20.69;44.05;94513.81;5152008;27;20236;-82
2022/05/03 09:57:21;;;;;;;2.37;2.00;;;;;;;20.82;43.51;94505.97;5149934;27;20183;-79
2022/05/03 09:59:49;;;;;;;3.50;1.90;;;;;;;20.92;43.58;94503.72;5150217;27;20207;-83
2022/05/03 10:02:17;;;;;;;2.00;1.90;;;;;;;21.05;43.30;94501.06;5151210;27;20223;-84
2022/05/03 10:04:45;;;;;;;1.90;1.80;;;;;;;21.16;43.21;94517.06;5148771;27;20187;-85
2022/05/03 10:07:12;;;;;;;2.43;2.23;;;;;;;21.24;43.15;94504.59;5151277;27;20547;-85
2022/05/03 10:09:40;;;;;;;2.30;2.10;;;;;;;21.12;43.06;94474.25;5149104;27;20230;-84
2022/05/03 10:12:09;;;;;;;5.83;2.10;;;;;;;21.32;42.94;94510.59;5151561;27;20192;-85
2022/05/03 10:14:37;;;;;;;3.13;2.17;;;;;;;20.91;42.85;94446.75;5150945;27;20203;-86
2022/05/03 10:22:39;;;;;;;3.37;1.90;;;;;;;21.08;42.42;94492.06;5151552;27;20194;-85
2022/05/03 10:25:08;;;;;;;2.90;1.97;;;;;;;21.14;42.42;94509.44;5152361;27;20196;-85
2022/05/03 10:27:54;;;;;;;2.03;1.90;;;;;;;21.05;42.42;94511.47;5151568;27;20191;-84
2022/05/03 10:30:26;;;;;;;3.40;2.33;;;;;;;20.83;42.46;94486.78;5147248;27;20594;-85
2022/05/03 10:33:30;;;;;;;2.10;2.00;;;;;;;20.83;42.34;94504.97;5150947;27;20647;-80
2022/05/03 10:35:58;;;;;;;2.83;1.90;;;;;;;20.71;42.32;94514.41;5150396;27;20187;-80
2022/05/03 10:38:36;;;;;;;2.23;2.03;;;;;;;20.02;42.37;94414.44;5152362;27;20180;-85
2022/05/03 10:41:05;;;;;;;2.13;1.90;;;;;;;20.42;42.23;94507.84;5153414;27;20679;-84
2022/05/03 10:43:34;;;;;;;2.30;2.03;;;;;;;20.32;42.36;94502.28;5156594;27;20188;-84
2022/05/03 10:46:10;;;;;;;2.60;2.20;;;;;;;20.12;42.42;94500.50;5153486;27;20203;-85
2022/05/03 10:48:41;;;;;;;2.40;2.10;;;;;;;20.07;42.32;94502.88;5150101;27;20195;-80
2022/05/03 10:51:10;;;;;;;2.80;1.90;;;;;;;19.90;42.21;94499.91;5150584;27;20196;-85
2022/05/03 10:53:38;;;;;;;2.60;1.80;;;;;;;19.96;42.69;94508.69;5153976;27;20199;-84
2022/05/03 10:56:19;;;;;;;2.10;1.90;;;;;;;19.34;42.45;94406.84;5154727;27;20199;-85
2022/05/03 10:59:15;;;;;;;1.70;1.60;;;;;;;19.79;42.62;94466.78;5154888;27;20282;-84
2022/05/03 11:02:12;;;;;;;2.03;1.90;;;;;;;20.01;42.65;94495.91;5166609;27;20203;-85
2022/05/03 11:05:16;;;;;;;2.13;1.93;;;;;;;20.05;42.73;94492.72;5160778;27;20207;-88
2022/05/03 11:08:16;;;;;;;3.10;2.33;;;;;;;20.12;42.65;94486.72;5151848;27;20194;-82
2022/05/03 11:10:44;;;;;;;1.93;1.70;;;;;;;19.38;42.74;94357.97;5154244;27;20211;-83
2022/05/03 11:13:37;;;;;;;3.60;2.00;;;;;;;20.28;42.67;94488.88;5154719;27;20180;-80
2022/05/03 11:16:24;;;;;;;2.73;1.70;;;;;;;20.37;42.92;94490.25;5155740;27;20188;-80
2022/05/03 11:18:53;;;;;;;2.20;1.70;;;;;;;20.43;42.43;94493.88;5154031;27;20622;-81
2022/05/03 11:21:21;;;;;;;3.07;2.00;;;;;;;20.46;42.35;94490.84;5154587;27;20215;-81
2022/05/03 11:23:49;;;;;;;1.97;1.87;;;;;;;20.28;42.17;94461.13;5151083;27;20195;-85
2022/05/03 11:26:16;;;;;;;1.97;1.83;;;;;;;20.27;42.07;94456.13;5154932;27;20196;-78
2022/05/03 11:28:46;;;;;;;1.90;1.70;;;;;;;20.43;42.17;94486.09;5151862;27;20183;-82
2022/05/03 11:31:15;;;;;;;1.97;1.77;;;;;;;20.03;41.91;94411.66;5148731;27;20219;-81
2022/05/03 11:33:55;;;;;;;2.40;2.20;;;;;;;19.11;41.73;94276.84;5152202;27;20191;-83
2022/05/03 11:36:22;;;;;;;2.00;1.90;;;;;;;20.31;41.93;94428.75;5153472;27;20180;-84
2022/05/03 11:38:50;;;;;;;2.03;1.70;;;;;;;20.69;41.95;94478.22;5154810;27;20199;-81
2022/05/03 11:41:20;;;;;;;2.20;2.00;;;;;;;20.57;41.97;94459.09;5155441;27;20195;-82
2022/05/03 11:43:48;;;;;;;2.80;1.90;;;;;;;20.80;41.69;94474.97;5153522;27;20703;-85
2022/05/03 11:46:16;;;;;;;2.27;2.03;;;;;;;20.28;41.68;94387.59;5153561;27;20191;-82
2022/05/03 11:48:43;;;;;;;2.20;2.00;;;;;;;20.20;41.43;94396.41;5155425;27;20213;-85
2022/05/03 11:56:46;;;;;;;2.07;1.97;;;;;;;20.61;41.16;94483.66;5154168;27;20224;-84
2022/05/03 11:59:13;;;;;;;2.20;2.00;;;;;;;20.64;40.82;94478.06;5160796;27;20193;-82
2022/05/03 12:01:40;;;;;;;1.97;1.83;;;;;;;20.53;40.95;94450.09;5153185;27;20262;-85
2022/05/03 12:04:08;;;;;;;3.03;2.10;;;;;;;20.42;41.05;94419.53;5152210;27;20558;-82
2022/05/03 12:06:43;;;;;;;2.27;2.17;;;;;;;20.74;41.25;94467.22;5153845;27;20198;-87
2022/05/03 12:09:11;;;;;;;2.00;1.90;;;;;;;20.75;41.03;94463.63;5154145;27;20206;-82
2022/05/03 12:12:42;;;;;;;2.80;1.80;;;;;;;20.71;40.89;94463.22;5153940;27;20739;-82
2022/05/03 12:14:34;;;;;;;2.07;1.93;;;;;;;20.67;40.84;94461.25;5153412;27;20661;-80
2022/05/03 12:17:00;;;;;;;5.80;2.10;;;;;;;20.61;40.88;94467.28;5153609;27;20195;-81
2022/05/03 12:19:34;;;;;;;2.33;2.13;;;;;;;20.53;40.95;94469.09;5151908;27;20261;-82
2022/05/03 12:22:12;;;;;;;5.20;1.90;;;;;;;20.46;41.06;94472.66;5155152;27;20222;-85
2022/05/03 12:24:41;;;;;;;4.90;2.20;;;;;;;20.36;41.06;94482.69;5152433;27;20188;-82
2022/05/03 12:27:12;;;;;;;2.33;2.13;;;;;;;19.84;41.05;94420.25;5153728;27;20625;-82